Time;durP1;ratioP1;P1;durP2;ratioP2;P2;SDS_P1;SDS_P2;PMS_P1;PMS_P2;Temp;Humidity;BMP_temperature;BMP_pressure;BME280_temperature;BME280_humidity;BME280_pressure;Samples;Min_cycle;Max_cycle;Signal;HPM_P1;HPM_P2
2021/07/12 00:01:00;;;;;;;7.97;6.90;;;16.70;99.90;;;;;;5033445;28;20638;-79
2021/07/12 00:03:27;;;;;;;7.03;6.33;;;16.70;99.90;;;;;;5041912;28;20724;-79
2021/07/12 00:05:54;;;;;;;7.27;6.57;;;16.70;99.90;;;;;;5053517;28;20251;-79
2021/07/12 00:08:21;;;;;;;8.77;7.00;;;16.70;99.90;;;;;;5042488;28;20548;-79
2021/07/12 00:10:49;;;;;;;8.80;7.00;;;16.60;99.90;;;;;;5053900;28;20584;-79
2021/07/12 00:13:17;;;;;;;7.47;6.77;;;16.70;99.90;;;;;;5053885;28;20235;-79
2021/07/12 00:15:44;;;;;;;13.30;6.93;;;16.60;99.90;;;;;;5053056;28;20283;-79
2021/07/12 00:18:11;;;;;;;7.97;7.17;;;16.60;99.90;;;;;;5052837;28;20287;-79
2021/07/12 00:20:38;;;;;;;10.60;7.53;;;16.60;99.90;;;;;;5053778;28;20287;-79
2021/07/12 00:23:05;;;;;;;9.93;7.23;;;16.60;99.90;;;;;;5046784;28;20638;-79
2021/07/12 00:25:32;;;;;;;8.23;6.63;;;16.50;99.90;;;;;;5036683;28;20215;-79
2021/07/12 00:28:00;;;;;;;8.00;6.07;;;16.50;99.90;;;;;;5053478;28;20663;-79
2021/07/12 00:30:30;;;;;;;7.53;6.53;;;16.50;99.90;;;;;;5053372;28;20667;-80
2021/07/12 00:32:57;;;;;;;8.50;6.83;;;16.50;99.90;;;;;;5053410;28;20614;-79
2021/07/12 00:35:25;;;;;;;10.13;7.50;;;16.50;99.90;;;;;;5053545;28;20196;-79
2021/07/12 00:37:52;;;;;;;7.60;6.87;;;16.50;99.90;;;;;;5052938;28;20235;-79
2021/07/12 00:40:21;;;;;;;9.57;7.07;;;16.50;99.90;;;;;;5053613;28;20585;-79
2021/07/12 00:42:49;;;;;;;8.73;7.17;;;16.50;99.90;;;;;;5053043;28;20237;-79
2021/07/12 00:45:18;;;;;;;7.47;6.57;;;16.50;99.90;;;;;;5033039;28;20755;-79
2021/07/12 00:47:46;;;;;;;8.93;7.03;;;16.50;99.90;;;;;;5033020;28;20828;-79
2021/07/12 00:50:14;;;;;;;7.50;6.70;;;16.50;99.90;;;;;;5038180;28;20755;-79
2021/07/12 00:52:41;;;;;;;9.03;7.17;;;16.50;99.90;;;;;;5052511;28;20250;-79
2021/07/12 00:55:20;;;;;;;9.47;6.93;;;16.50;99.90;;;;;;5053382;28;20238;-79
2021/07/12 00:57:48;;;;;;;7.33;6.60;;;16.50;99.90;;;;;;5052937;28;20200;-79
2021/07/12 01:00:16;;;;;;;8.73;6.77;;;16.50;99.90;;;;;;5053264;28;20286;-79
2021/07/12 01:02:44;;;;;;;8.87;7.23;;;16.50;99.90;;;;;;5053044;28;20238;-79
2021/07/12 01:05:16;;;;;;;9.30;7.27;;;16.50;99.90;;;;;;5044993;28;20239;-79
2021/07/12 01:07:43;;;;;;;8.23;6.97;;;16.40;99.90;;;;;;5032770;28;20247;-79
2021/07/12 01:10:12;;;;;;;9.30;7.13;;;16.40;99.90;;;;;;5032695;28;20291;-79
2021/07/12 01:12:43;;;;;;;7.67;6.87;;;16.40;99.90;;;;;;5039570;28;20234;-79
2021/07/12 01:15:13;;;;;;;8.00;6.87;;;16.40;99.90;;;;;;5053047;28;20282;-79
2021/07/12 01:17:49;;;;;;;7.13;6.43;;;16.30;99.90;;;;;;5036678;28;20196;-79
2021/07/12 01:21:02;;;;;;;9.83;7.20;;;16.30;99.90;;;;;;5032378;28;20214;-79
2021/07/12 01:24:17;;;;;;;7.80;7.00;;;16.20;99.90;;;;;;5047472;28;20238;-79
2021/07/12 01:27:18;;;;;;;9.17;7.77;;;16.20;99.90;;;;;;5043098;28;20299;-79
2021/07/12 01:30:04;;;;;;;8.00;7.20;;;16.20;99.90;;;;;;5032414;28;20287;-79
2021/07/12 01:32:59;;;;;;;7.53;6.70;;;16.10;99.90;;;;;;5032330;28;20224;-79
2021/07/12 01:35:36;;;;;;;11.23;7.57;;;16.10;99.90;;;;;;5031916;28;20215;-79
2021/07/12 01:38:14;;;;;;;7.40;6.57;;;16.10;99.90;;;;;;5032337;28;20291;-79
2021/07/12 01:40:48;;;;;;;10.43;7.57;;;16.00;99.90;;;;;;5032041;28;20271;-79
2021/07/12 01:43:28;;;;;;;11.07;7.20;;;15.90;99.90;;;;;;5043549;28;20231;-79
2021/07/12 01:46:02;;;;;;;8.37;7.57;;;15.90;99.90;;;;;;5033805;28;20686;-79
2021/07/12 01:48:39;;;;;;;8.77;7.07;;;15.90;99.90;;;;;;5032250;28;20287;-79
2021/07/12 01:51:09;;;;;;;7.90;7.10;;;15.90;99.90;;;;;;5035622;28;20219;-79
2021/07/12 01:53:45;;;;;;;8.70;7.03;;;15.90;99.90;;;;;;5052236;28;20238;-79
2021/07/12 01:56:22;;;;;;;8.73;7.40;;;15.90;99.90;;;;;;5051567;28;20283;-79
2021/07/12 01:58:57;;;;;;;8.47;7.00;;;15.80;99.90;;;;;;5042281;28;20379;-79
2021/07/12 02:01:27;;;;;;;8.13;7.37;;;15.80;99.90;;;;;;5038683;28;20631;-79
2021/07/12 02:03:56;;;;;;;8.73;7.17;;;15.70;99.90;;;;;;5049807;28;20291;-79
2021/07/12 02:06:24;;;;;;;9.13;7.43;;;15.70;99.90;;;;;;5051604;28;20306;-79
2021/07/12 02:08:55;;;;;;;9.03;7.93;;;15.70;99.90;;;;;;5051774;28;20291;-79
2021/07/12 02:11:22;;;;;;;9.40;7.90;;;15.70;99.90;;;;;;5051921;28;20286;-79
2021/07/12 02:13:51;;;;;;;7.97;7.00;;;15.70;99.90;;;;;;5043023;28;20687;-78
2021/07/12 02:16:20;;;;;;;8.00;7.20;;;15.70;99.90;;;;;;5031983;28;20283;-79
2021/07/12 02:18:48;;;;;;;9.57;7.77;;;15.70;99.90;;;;;;5031387;28;20244;-79
2021/07/12 02:21:18;;;;;;;8.17;7.17;;;15.70;99.90;;;;;;5031996;28;20306;-79
2021/07/12 02:23:46;;;;;;;8.53;7.37;;;15.80;99.90;;;;;;5042145;28;20279;-79
2021/07/12 02:26:15;;;;;;;8.20;7.40;;;15.80;99.90;;;;;;5056138;28;20310;-79
2021/07/12 02:28:44;;;;;;;10.90;7.67;;;15.80;99.90;;;;;;5046344;28;20767;-79
2021/07/12 02:31:13;;;;;;;11.20;7.87;;;15.80;99.90;;;;;;5049556;28;20200;-79
2021/07/12 02:33:40;;;;;;;9.17;7.97;;;15.80;99.90;;;;;;5035560;28;20215;-79
2021/07/12 02:36:08;;;;;;;13.50;7.83;;;15.80;99.90;;;;;;5038678;28;20201;-79
2021/07/12 02:38:38;;;;;;;9.27;7.20;;;15.80;99.90;;;;;;5035972;28;20284;-79
2021/07/12 02:41:06;;;;;;;9.83;7.30;;;15.80;99.90;;;;;;5035535;28;20700;-79
2021/07/12 02:43:35;;;;;;;8.97;7.50;;;15.80;99.90;;;;;;5035706;28;20232;-79
2021/07/12 02:46:03;;;;;;;9.27;7.50;;;15.80;99.90;;;;;;5035206;28;20295;-79
2021/07/12 02:48:30;;;;;;;8.20;7.37;;;15.80;99.90;;;;;;5035367;28;20291;-79
2021/07/12 02:50:58;;;;;;;12.30;7.60;;;15.80;99.90;;;;;;5035243;28;20432;-79
2021/07/12 02:53:29;;;;;;;8.80;7.10;;;15.80;99.90;;;;;;5035602;28;20283;-79
2021/07/12 02:55:58;;;;;;;10.33;7.70;;;15.90;99.90;;;;;;5035453;28;20676;-79
2021/07/12 02:58:25;;;;;;;8.60;7.67;;;15.90;99.90;;;;;;5047757;28;20227;-79
2021/07/12 03:00:52;;;;;;;8.73;7.83;;;15.90;99.90;;;;;;5054035;28;20288;-79
2021/07/12 03:03:19;;;;;;;10.37;7.70;;;16.00;99.90;;;;;;5054962;28;20286;-79
2021/07/12 03:05:50;;;;;;;9.73;7.90;;;15.90;99.90;;;;;;5044177;28;20636;-80
2021/07/12 03:08:21;;;;;;;9.00;7.97;;;16.00;99.90;;;;;;5043859;28;20223;-79
2021/07/12 03:10:54;;;;;;;10.77;8.10;;;15.90;99.90;;;;;;5055163;28;20290;-79
2021/07/12 03:13:30;;;;;;;9.57;8.57;;;15.90;99.90;;;;;;5053999;28;20234;-79
2021/07/12 03:15:58;;;;;;;11.03;8.53;;;15.90;99.90;;;;;;5054939;28;20369;-79
2021/07/12 03:18:30;;;;;;;9.77;8.77;;;15.90;99.90;;;;;;5054391;28;20230;-78
2021/07/12 03:21:00;;;;;;;12.07;8.60;;;15.90;99.90;;;;;;5049523;28;20319;-79
2021/07/12 03:23:31;;;;;;;10.20;8.27;;;16.00;99.90;;;;;;5052905;28;20215;-79
2021/07/12 03:26:02;;;;;;;11.10;8.60;;;16.00;99.90;;;;;;5054947;28;20200;-79
2021/07/12 03:28:32;;;;;;;13.23;8.80;;;16.00;99.90;;;;;;5054253;28;20227;-79
2021/07/12 03:31:01;;;;;;;9.63;8.23;;;16.00;99.90;;;;;;5051869;28;20287;-79
2021/07/12 03:33:30;;;;;;;9.10;8.20;;;16.00;99.90;;;;;;5051778;28;20227;-79
2021/07/12 03:35:59;;;;;;;10.40;8.13;;;16.00;99.90;;;;;;5041509;28;20292;-79
2021/07/12 03:38:26;;;;;;;9.43;8.43;;;15.90;99.90;;;;;;5043436;28;20227;-79
2021/07/12 03:40:53;;;;;;;10.90;8.13;;;16.00;99.90;;;;;;5040042;28;20283;-79
2021/07/12 03:43:22;;;;;;;10.40;8.93;;;15.90;99.90;;;;;;5046617;28;20199;-79
2021/07/12 03:45:56;;;;;;;9.87;8.83;;;16.00;99.90;;;;;;5048528;28;20236;-79
2021/07/12 03:48:35;;;;;;;9.40;8.27;;;15.90;99.90;;;;;;5034227;28;20252;-79
2021/07/12 03:51:03;;;;;;;9.53;8.37;;;15.90;99.90;;;;;;5034130;28;20200;-79
2021/07/12 03:53:32;;;;;;;9.93;8.57;;;15.90;99.90;;;;;;5044327;28;20291;-79
2021/07/12 03:55:59;;;;;;;11.57;8.90;;;15.90;99.90;;;;;;5047619;28;20201;-79
2021/07/12 03:58:26;;;;;;;10.33;9.17;;;15.90;99.90;;;;;;5034184;28;20291;-79
2021/07/12 04:00:54;;;;;;;10.20;8.40;;;16.00;99.90;;;;;;5033925;28;20207;-79
2021/07/12 04:03:21;;;;;;;9.07;8.17;;;15.90;99.90;;;;;;5033916;28;20643;-79
2021/07/12 04:05:48;;;;;;;10.50;8.93;;;16.00;99.90;;;;;;5034556;28;20600;-79
2021/07/12 04:08:15;;;;;;;10.20;9.10;;;16.00;99.90;;;;;;5035613;28;20339;-79
2021/07/12 04:10:42;;;;;;;9.60;8.17;;;15.90;99.90;;;;;;5033843;28;20299;-79
2021/07/12 04:13:09;;;;;;;10.97;9.30;;;15.90;99.90;;;;;;5034624;28;20587;-79
2021/07/12 04:15:36;;;;;;;12.73;9.60;;;15.90;99.90;;;;;;5042646;28;20196;-79
2021/07/12 04:18:06;;;;;;;12.23;9.50;;;16.00;99.90;;;;;;5037974;28;20271;-79
2021/07/12 04:20:33;;;;;;;13.33;9.60;;;16.00;99.90;;;;;;5046338;28;20199;-79
2021/07/12 04:23:00;;;;;;;10.77;9.67;;;16.00;99.90;;;;;;5033733;28;20228;-78
2021/07/12 04:25:28;;;;;;;10.93;9.80;;;16.00;99.90;;;;;;5033907;28;20552;-78
2021/07/12 04:27:56;;;;;;;11.93;9.47;;;15.90;99.90;;;;;;5033791;28;20320;-79
2021/07/12 04:30:23;;;;;;;15.67;9.87;;;15.90;99.90;;;;;;5043988;28;20239;-79
2021/07/12 04:32:50;;;;;;;10.33;9.30;;;15.90;99.90;;;;;;5049693;28;20645;-79
2021/07/12 04:35:19;;;;;;;12.53;9.83;;;15.90;99.90;;;;;;5044371;28;20703;-79
2021/07/12 04:37:46;;;;;;;12.77;9.40;;;16.00;99.90;;;;;;5047514;28;20669;-79
2021/07/12 04:40:14;;;;;;;14.17;9.83;;;16.00;99.90;;;;;;5032839;28;20288;-78
2021/07/12 04:42:41;;;;;;;11.50;9.10;;;15.90;99.90;;;;;;5034416;28;20614;-79
2021/07/12 04:45:08;;;;;;;15.07;9.43;;;15.90;99.90;;;;;;5052575;28;20295;-79
2021/07/12 04:47:36;;;;;;;16.57;9.43;;;15.90;99.90;;;;;;5033156;28;20682;-79
2021/07/12 04:50:03;;;;;;;32.07;9.80;;;16.00;99.90;;;;;;5034924;28;20228;-79
2021/07/12 04:52:32;;;;;;;24.67;9.93;;;15.90;99.90;;;;;;5033567;28;20243;-78
2021/07/12 04:54:59;;;;;;;26.50;9.90;;;15.90;99.90;;;;;;5040459;28;20206;-79
2021/07/12 04:57:26;;;;;;;22.83;9.90;;;15.90;99.90;;;;;;5052000;28;20223;-78
2021/07/12 04:59:53;;;;;;;26.80;9.83;;;15.90;99.90;;;;;;5052813;28;20226;-79
2021/07/12 05:02:20;;;;;;;24.27;10.27;;;15.90;99.90;;;;;;5036554;28;20200;-79
2021/07/12 05:04:47;;;;;;;17.13;9.60;;;15.90;99.90;;;;;;5048502;28;20286;-79
2021/07/12 05:07:14;;;;;;;17.73;10.07;;;15.90;99.90;;;;;;5037527;28;20644;-78
2021/07/12 05:09:42;;;;;;;11.63;9.53;;;15.90;99.90;;;;;;5041447;28;20210;-79
2021/07/12 05:12:13;;;;;;;17.50;10.77;;;16.00;99.90;;;;;;5045086;28;20656;-78
2021/07/12 05:14:40;;;;;;;12.73;10.10;;;16.00;99.90;;;;;;5052287;28;20200;-78
2021/07/12 05:17:08;;;;;;;11.27;9.63;;;16.00;99.90;;;;;;5051700;28;20234;-78
2021/07/12 05:19:35;;;;;;;11.70;10.43;;;16.10;99.90;;;;;;5051806;28;20812;-78
2021/07/12 05:22:02;;;;;;;12.97;9.93;;;16.10;99.90;;;;;;5049330;28;20298;-78
2021/07/12 05:24:29;;;;;;;14.47;9.93;;;16.00;99.90;;;;;;5032622;28;20236;-79
2021/07/12 05:26:57;;;;;;;12.03;10.27;;;16.10;99.90;;;;;;5032405;28;20291;-78
2021/07/12 05:29:24;;;;;;;12.77;10.10;;;16.20;99.90;;;;;;5032545;28;20295;-79
2021/07/12 05:31:51;;;;;;;12.50;10.03;;;16.20;99.90;;;;;;5040717;28;20227;-79
2021/07/12 05:34:19;;;;;;;12.73;9.07;;;16.10;99.90;;;;;;5032441;28;20296;-79
2021/07/12 05:36:47;;;;;;;12.97;9.67;;;16.10;99.90;;;;;;5034828;28;20235;-79
2021/07/12 05:39:13;;;;;;;12.03;9.33;;;16.10;99.90;;;;;;5035363;28;20196;-79
2021/07/12 05:41:41;;;;;;;11.90;9.07;;;16.10;99.90;;;;;;5037790;28;20229;-79
2021/07/12 05:44:09;;;;;;;10.67;9.00;;;16.10;99.90;;;;;;5040564;28;20196;-79
2021/07/12 05:46:36;;;;;;;10.17;8.60;;;16.10;99.90;;;;;;5041812;28;20283;-80
2021/07/12 05:49:03;;;;;;;10.53;8.73;;;16.10;99.90;;;;;;5031880;28;20715;-79
2021/07/12 05:51:30;;;;;;;13.93;9.23;;;16.10;99.90;;;;;;5032149;28;20204;-79
2021/07/12 05:53:57;;;;;;;12.60;8.40;;;16.10;99.90;;;;;;5032104;28;20291;-78
2021/07/12 05:56:23;;;;;;;10.80;8.50;;;16.20;99.90;;;;;;5030798;28;20220;-79
2021/07/12 05:58:50;;;;;;;9.90;8.43;;;16.20;99.90;;;;;;5035138;28;20282;-79
2021/07/12 06:01:19;;;;;;;10.20;8.60;;;16.20;99.90;;;;;;5043981;28;20652;-79
2021/07/12 06:03:46;;;;;;;10.67;8.50;;;16.20;99.90;;;;;;5032135;28;20228;-79
2021/07/12 06:06:13;;;;;;;12.33;8.47;;;16.10;99.90;;;;;;5032086;28;20287;-79
2021/07/12 06:08:40;;;;;;;16.20;8.47;;;16.20;99.90;;;;;;5044764;28;20220;-78
2021/07/12 06:11:08;;;;;;;9.83;8.07;;;16.20;99.90;;;;;;5034674;28;20675;-79
2021/07/12 06:13:35;;;;;;;9.40;8.40;;;16.10;99.90;;;;;;5039327;28;20620;-78
2021/07/12 06:16:10;;;;;;;10.13;8.03;;;16.10;99.90;;;;;;5046323;28;20204;-79
2021/07/12 06:18:38;;;;;;;11.93;8.67;;;16.10;99.90;;;;;;5032234;28;20195;-78
2021/07/12 06:21:05;;;;;;;11.20;8.40;;;16.10;99.90;;;;;;5031016;28;20768;-79
2021/07/12 06:23:32;;;;;;;11.00;9.33;;;16.20;99.90;;;;;;5043602;28;20278;-79
2021/07/12 06:25:59;;;;;;;12.63;8.60;;;16.30;99.90;;;;;;5051399;28;20203;-79
2021/07/12 06:28:26;;;;;;;13.30;8.57;;;16.40;99.90;;;;;;5050422;28;20258;-79
2021/07/12 06:30:53;;;;;;;12.30;9.00;;;16.40;99.90;;;;;;5051573;28;20638;-79
2021/07/12 06:33:21;;;;;;;10.93;9.23;;;16.50;99.90;;;;;;5041829;28;20287;-79
2021/07/12 06:35:49;;;;;;;13.10;8.63;;;16.50;99.90;;;;;;5040881;28;20196;-79
2021/07/12 06:38:16;;;;;;;10.97;8.43;;;16.60;99.90;;;;;;5051922;28;20231;-79
2021/07/12 06:40:43;;;;;;;12.63;8.47;;;16.50;99.90;;;;;;5039487;28;20278;-79
2021/07/12 06:43:10;;;;;;;8.93;8.03;;;16.60;99.90;;;;;;5051387;28;20273;-79
2021/07/12 06:45:38;;;;;;;11.83;8.37;;;16.70;99.90;;;;;;5051087;28;20288;-79
2021/07/12 06:48:05;;;;;;;10.50;8.23;;;16.90;99.90;;;;;;5041216;28;20235;-79
2021/07/12 06:50:32;;;;;;;10.33;8.03;;;17.00;99.90;;;;;;5031390;28;20254;-79
2021/07/12 06:53:01;;;;;;;9.27;7.43;;;17.00;99.90;;;;;;5039968;28;20239;-79
2021/07/12 06:55:28;;;;;;;9.57;7.27;;;17.10;99.90;;;;;;5050528;28;20298;-79
2021/07/12 06:57:56;;;;;;;10.85;7.25;;;17.30;99.90;;;;;;5051119;28;20703;-79
2021/07/12 07:00:23;;;;;;;8.05;7.03;;;17.50;99.90;;;;;;5051476;28;20245;-79
2021/07/12 07:02:50;;;;;;;8.48;6.97;;;17.70;99.90;;;;;;5051456;28;20291;-79
2021/07/12 07:05:17;;;;;;;9.50;6.93;;;17.70;99.90;;;;;;5036612;28;20215;-79
2021/07/12 07:07:44;;;;;;;8.13;6.50;;;17.50;99.90;;;;;;5040417;28;20361;-80
2021/07/12 07:10:13;;;;;;;8.30;6.40;;;17.30;99.90;;;;;;5034028;28;20287;-79
2021/07/12 07:12:40;;;;;;;8.95;6.40;;;17.20;99.90;;;;;;5036888;28;20950;-79
2021/07/12 07:15:09;;;;;;;10.20;7.18;;;17.30;99.90;;;;;;5054548;28;20235;-79
2021/07/12 07:17:36;;;;;;;8.10;6.87;;;17.30;99.90;;;;;;5055212;28;20611;-79
2021/07/12 07:20:04;;;;;;;7.50;6.80;;;17.40;99.90;;;;;;5055149;28;20234;-79
2021/07/12 07:22:31;;;;;;;8.85;6.50;;;17.40;99.90;;;;;;5053578;28;20219;-80
2021/07/12 07:24:58;;;;;;;7.00;6.30;;;17.50;99.90;;;;;;5053210;28;20200;-79
2021/07/12 07:27:26;;;;;;;9.83;6.50;;;17.40;99.90;;;;;;5054556;28;20203;-79
2021/07/12 07:29:53;;;;;;;11.07;6.57;;;17.30;99.90;;;;;;5034354;28;20239;-80
2021/07/12 07:32:20;;;;;;;7.73;6.43;;;17.10;99.90;;;;;;5034196;28;20296;-79
2021/07/12 07:34:47;;;;;;;8.77;6.38;;;17.00;99.90;;;;;;5036809;28;20202;-79
2021/07/12 07:37:14;;;;;;;9.03;6.77;;;16.90;99.90;;;;;;5034766;28;20287;-79
2021/07/12 07:39:42;;;;;;;10.13;7.30;;;16.80;99.90;;;;;;5033836;28;20283;-80
2021/07/12 07:42:09;;;;;;;9.17;7.20;;;16.70;99.90;;;;;;5034132;28;20664;-79
2021/07/12 07:44:37;;;;;;;10.07;7.70;;;16.70;99.90;;;;;;5034390;28;20280;-80
2021/07/12 07:47:05;;;;;;;12.23;7.93;;;16.60;99.90;;;;;;5034076;28;20296;-79
2021/07/12 07:49:32;;;;;;;11.17;8.17;;;16.50;99.90;;;;;;5052444;28;20311;-79
2021/07/12 07:51:59;;;;;;;11.33;8.37;;;16.40;99.90;;;;;;5053547;28;20706;-79
2021/07/12 07:54:26;;;;;;;10.10;7.63;;;16.50;99.90;;;;;;5051035;28;20282;-79
2021/07/12 07:56:53;;;;;;;11.33;7.60;;;16.50;99.90;;;;;;5053955;28;20261;-79
2021/07/12 07:59:20;;;;;;;13.63;7.90;;;16.30;99.90;;;;;;5049473;28;20279;-79
2021/07/12 08:01:49;;;;;;;9.83;6.97;;;16.20;99.90;;;;;;5045983;28;20688;-79
2021/07/12 08:04:16;;;;;;;6.90;4.40;;;16.30;99.90;;;;;;5034230;28;20236;-79
2021/07/12 08:06:43;;;;;;;3.27;2.33;;;16.20;99.90;;;;;;5033737;28;20292;-79
2021/07/12 08:09:10;;;;;;;3.90;1.90;;;16.00;99.90;;;;;;5034159;28;20311;-79
2021/07/12 08:11:37;;;;;;;4.33;2.00;;;16.00;99.90;;;;;;5051760;28;20715;-80
2021/07/12 08:14:04;;;;;;;7.00;1.70;;;16.10;99.90;;;;;;5042702;28;20232;-79
2021/07/12 08:16:31;;;;;;;1.80;1.50;;;16.20;99.90;;;;;;5033294;28;20289;-79
2021/07/12 08:18:59;;;;;;;2.93;1.50;;;16.10;99.90;;;;;;5033316;28;20278;-79
2021/07/12 08:21:26;;;;;;;1.60;1.30;;;16.30;99.90;;;;;;5037768;28;20308;-79
2021/07/12 08:23:53;;;;;;;2.90;1.40;;;16.30;99.90;;;;;;5035758;28;20630;-79
2021/07/12 08:26:20;;;;;;;1.50;1.40;;;16.40;99.90;;;;;;5038918;28;20692;-79
2021/07/12 08:28:47;;;;;;;1.33;1.23;;;16.70;99.90;;;;;;5044809;28;20302;-79
2021/07/12 08:31:16;;;;;;;1.50;1.33;;;16.70;99.90;;;;;;5037175;28;20292;-79
2021/07/12 08:33:43;;;;;;;1.73;1.17;;;16.60;99.90;;;;;;5041903;28;20196;-79
2021/07/12 08:36:16;;;;;;;1.03;0.93;;;16.60;99.90;;;;;;5049534;28;20200;-79
2021/07/12 08:38:43;;;;;;;1.00;0.90;;;16.60;99.90;;;;;;5038172;28;20223;-79
2021/07/12 08:41:10;;;;;;;2.23;1.70;;;16.50;99.90;;;;;;5050802;28;20297;-79
2021/07/12 08:43:39;;;;;;;2.70;2.00;;;16.20;99.90;;;;;;5035262;28;20287;-79
2021/07/12 08:46:06;;;;;;;3.03;2.40;;;16.10;99.90;;;;;;5032819;28;20280;-79
2021/07/12 08:48:33;;;;;;;3.10;2.60;;;16.00;99.90;;;;;;5043232;28;20259;-79
2021/07/12 08:51:00;;;;;;;3.13;2.70;;;16.30;99.90;;;;;;5044568;28;20295;-79
2021/07/12 08:53:28;;;;;;;3.50;2.93;;;16.20;99.90;;;;;;5052544;28;20227;-79
2021/07/12 08:55:55;;;;;;;3.87;2.77;;;16.30;99.90;;;;;;5050409;28;20235;-79
2021/07/12 08:58:27;;;;;;;5.67;3.10;;;16.10;99.90;;;;;;5036707;28;20283;-79
2021/07/12 09:01:00;;;;;;;3.50;3.00;;;16.10;99.90;;;;;;5032733;28;20197;-79
2021/07/12 09:03:29;;;;;;;6.10;3.27;;;16.20;99.90;;;;;;5053015;28;20569;-79
2021/07/12 09:06:08;;;;;;;4.40;3.50;;;16.20;99.90;;;;;;5032706;28;20224;-79
2021/07/12 09:08:47;;;;;;;5.13;3.90;;;16.30;99.90;;;;;;5032909;28;20270;-78
2021/07/12 09:11:17;;;;;;;5.13;3.80;;;16.30;99.90;;;;;;5037479;28;20287;-77
2021/07/12 09:13:57;;;;;;;4.20;3.80;;;16.40;99.90;;;;;;5053048;28;20238;-78
2021/07/12 09:16:33;;;;;;;4.57;3.50;;;16.10;99.90;;;;;;5052999;28;20294;-79
2021/07/12 09:19:08;;;;;;;4.20;3.80;;;16.20;99.90;;;;;;5037044;28;20707;-79
2021/07/12 09:21:37;;;;;;;4.50;3.40;;;16.30;99.90;;;;;;5031648;28;20307;-78
2021/07/12 09:24:27;;;;;;;5.03;3.80;;;16.40;99.90;;;;;;5051124;28;20232;-78
2021/07/12 09:26:57;;;;;;;4.73;3.40;;;16.60;99.90;;;;;;5039986;28;20299;-79
2021/07/12 09:29:27;;;;;;;4.07;3.67;;;16.60;99.90;;;;;;5032268;28;20642;-79
2021/07/12 09:31:54;;;;;;;4.45;3.25;;;17.00;99.90;;;;;;5037954;28;20283;-78
2021/07/12 09:34:22;;;;;;;4.80;3.40;;;17.40;99.90;;;;;;5046364;28;20680;-79
2021/07/12 09:36:50;;;;;;;3.45;3.08;;;17.90;99.90;;;;;;5030285;28;20695;-79
2021/07/12 09:39:23;;;;;;;4.53;3.22;;;18.10;99.90;;;;;;5035904;28;20644;-79
2021/07/12 09:41:53;;;;;;;3.20;2.90;;;18.70;99.90;;;;;;5033470;28;20204;-79
2021/07/12 09:44:21;;;;;;;3.85;3.10;;;19.00;99.90;;;;;;5051349;28;20702;-80
2021/07/12 09:46:48;;;;;;;2.63;2.42;;;18.90;99.90;;;;;;5051467;28;20255;-80
2021/07/12 09:49:17;;;;;;;2.92;2.63;;;18.60;99.90;;;;;;5051596;28;20255;-80
2021/07/12 09:51:44;;;;;;;2.80;2.58;;;18.00;99.90;;;;;;5051509;28;20231;-80
2021/07/12 09:54:19;;;;;;;3.35;2.53;;;17.80;99.90;;;;;;5052453;28;20238;-80
2021/07/12 09:56:46;;;;;;;2.97;2.60;;;17.80;99.90;;;;;;5044596;28;20341;-80
2021/07/12 09:59:15;;;;;;;3.97;2.58;;;17.70;99.90;;;;;;5040573;28;20632;-80
2021/07/12 10:01:50;;;;;;;3.97;2.85;;;18.00;99.90;;;;;;5045300;28;20277;-79
2021/07/12 10:04:22;;;;;;;2.63;2.28;;;18.20;99.90;;;;;;5050422;28;20231;-81
2021/07/12 10:06:50;;;;;;;4.13;2.47;;;18.00;99.90;;;;;;5044007;28;20235;-80
2021/07/12 10:09:21;;;;;;;2.83;2.10;;;17.50;99.90;;;;;;5050992;28;20357;-80
2021/07/12 10:11:48;;;;;;;2.50;2.28;;;17.30;99.90;;;;;;5051848;28;20295;-80
2021/07/12 10:14:18;;;;;;;2.75;2.40;;;17.20;99.90;;;;;;5041002;28;20647;-80
2021/07/12 10:16:45;;;;;;;4.97;2.47;;;17.70;99.90;;;;;;5049322;28;20294;-80
2021/07/12 10:19:12;;;;;;;3.13;2.70;;;18.20;99.90;;;;;;5044628;28;20552;-80
2021/07/12 10:21:46;;;;;;;3.08;2.60;;;18.40;99.90;;;;;;5048219;28;20315;-80
2021/07/12 10:24:13;;;;;;;2.83;2.63;;;18.10;99.90;;;;;;5043429;28;20233;-80
2021/07/12 10:26:55;;;;;;;3.38;2.88;;;17.50;99.90;;;;;;5041105;28;20250;-80
2021/07/12 10:29:30;;;;;;;3.88;3.40;;;17.50;99.90;;;;;;5031539;28;20278;-80
2021/07/12 10:32:13;;;;;;;4.85;3.50;;;17.70;99.90;;;;;;5030014;28;20199;-80
2021/07/12 10:34:42;;;;;;;7.63;3.70;;;17.70;99.90;;;;;;5033840;28;20884;-80
2021/07/12 10:37:18;;;;;;;7.85;4.03;;;17.50;99.90;;;;;;5046890;28;20224;-80
2021/07/12 10:40:14;;;;;;;4.97;3.75;;;17.50;99.90;;;;;;5040020;28;20274;-79
2021/07/12 10:43:05;;;;;;;7.22;4.20;;;17.50;99.90;;;;;;5033621;28;20232;-79
2021/07/12 10:45:49;;;;;;;7.63;3.80;;;18.10;99.90;;;;;;5034422;28;20231;-79
2021/07/12 10:48:17;;;;;;;5.30;3.58;;;19.00;99.90;;;;;;5040094;28;20200;-79
2021/07/12 10:50:50;;;;;;;5.32;3.80;;;19.20;99.90;;;;;;5044294;28;20800;-80
2021/07/12 10:53:58;;;;;;;7.38;3.67;;;18.70;99.90;;;;;;5054759;28;20207;-79
2021/07/12 10:56:43;;;;;;;6.55;3.83;;;18.90;99.90;;;;;;5050241;28;20200;-79
2021/07/12 10:59:25;;;;;;;6.43;3.90;;;18.30;99.90;;;;;;5034364;28;20283;-79
2021/07/12 11:01:53;;;;;;;7.53;4.03;;;18.00;99.90;;;;;;5033794;28;20204;-79
2021/07/12 11:04:42;;;;;;;7.22;4.20;;;18.00;99.90;;;;;;5034942;28;20208;-79
2021/07/12 11:07:13;;;;;;;8.18;5.10;;;18.10;99.90;;;;;;5034728;28;20285;-80
2021/07/12 11:10:03;;;;;;;8.82;4.97;;;17.80;99.90;;;;;;5041843;28;20239;-79
2021/07/12 11:12:52;;;;;;;6.78;4.78;;;17.60;99.90;;;;;;5050037;28;20199;-79
2021/07/12 11:15:27;;;;;;;6.45;4.50;;;17.50;99.90;;;;;;5054682;28;20235;-80
2021/07/12 11:18:04;;;;;;;4.85;3.80;;;17.20;99.90;;;;;;5044052;28;20207;-79
2021/07/12 11:20:43;;;;;;;7.53;4.38;;;17.10;99.90;;;;;;5036447;28;20294;-78
2021/07/12 11:23:30;;;;;;;4.40;4.00;;;17.30;99.90;;;;;;5044196;28;20565;-79
2021/07/12 11:25:57;;;;;;;5.07;3.95;;;17.60;99.90;;;;;;5051109;28;20622;-79
2021/07/12 11:28:41;;;;;;;6.10;3.55;;;18.00;99.90;;;;;;5053461;28;20238;-79
2021/07/12 11:31:45;;;;;;;4.28;3.10;;;18.00;99.90;;;;;;5034751;28;20271;-79
2021/07/12 11:34:19;;;;;;;4.93;3.30;;;18.00;99.90;;;;;;5035155;28;20198;-80
2021/07/12 11:36:51;;;;;;;6.75;3.42;;;17.90;99.90;;;;;;5049631;28;20284;-80
2021/07/12 11:39:20;;;;;;;6.22;3.50;;;18.00;99.90;;;;;;5038625;28;20219;-80
2021/07/12 11:41:47;;;;;;;3.78;2.70;;;18.00;99.90;;;;;;5049064;28;20247;-80
2021/07/12 11:44:16;;;;;;;6.25;3.00;;;18.20;99.90;;;;;;5034296;28;20239;-80
2021/07/12 11:46:43;;;;;;;5.43;2.70;;;18.20;99.90;;;;;;5041380;28;20750;-79
2021/07/12 11:49:12;;;;;;;5.75;2.90;;;18.30;99.90;;;;;;5054030;28;20262;-80
2021/07/12 11:51:41;;;;;;;3.13;2.70;;;18.70;99.90;;;;;;5054309;28;20241;-80
2021/07/12 11:54:20;;;;;;;4.75;2.47;;;18.70;99.90;;;;;;5054175;28;20823;-80
2021/07/12 11:57:03;;;;;;;6.38;2.95;;;18.50;99.90;;;;;;5040796;28;20200;-79
2021/07/12 11:59:34;;;;;;;5.60;2.55;;;18.40;99.90;;;;;;5032147;28;20196;-79
2021/07/12 12:02:07;;;;;;;5.47;2.65;;;18.10;99.90;;;;;;5034018;28;20300;-80
2021/07/12 12:04:52;;;;;;;4.00;2.80;;;18.10;99.90;;;;;;5034292;28;20284;-79
2021/07/12 12:07:40;;;;;;;3.15;2.22;;;18.50;99.90;;;;;;5033011;28;20201;-79
2021/07/12 12:10:10;;;;;;;4.78;2.40;;;18.90;99.90;;;;;;5038722;28;20266;-80
2021/07/12 12:12:41;;;;;;;2.58;1.85;;;19.10;99.90;;;;;;5032543;28;20207;-80
2021/07/12 12:15:12;;;;;;;5.05;2.20;;;19.50;99.90;;;;;;5052179;28;20299;-80
2021/07/12 12:17:40;;;;;;;2.72;1.90;;;20.20;99.90;;;;;;5053774;28;20235;-80
2021/07/12 12:20:18;;;;;;;5.72;2.00;;;21.20;99.90;;;;;;5053210;28;20639;-80
2021/07/12 12:23:08;;;;;;;4.03;1.95;;;21.00;99.90;;;;;;5052716;28;20227;-79
2021/07/12 12:25:41;;;;;;;3.33;1.70;;;20.70;99.90;;;;;;5038477;28;20284;-80
2021/07/12 12:28:09;;;;;;;3.58;1.80;;;20.50;99.90;;;;;;5033679;28;20359;-80
2021/07/12 12:30:37;;;;;;;5.82;1.70;;;20.20;99.90;;;;;;5044458;28;20309;-80
2021/07/12 12:33:06;;;;;;;2.35;1.38;;;20.50;99.90;;;;;;5052071;28;20240;-81
2021/07/12 12:35:33;;;;;;;3.25;1.48;;;20.50;99.90;;;;;;5052155;28;20205;-80
2021/07/12 12:38:13;;;;;;;4.35;1.90;;;20.30;99.90;;;;;;5053470;28;20196;-80
2021/07/12 12:40:41;;;;;;;2.80;1.55;;;20.30;99.90;;;;;;5049864;28;20200;-80
2021/07/12 12:43:12;;;;;;;3.88;1.50;;;20.10;99.90;;;;;;5048896;28;20278;-80
2021/07/12 12:45:46;;;;;;;2.80;1.67;;;20.10;99.90;;;;;;5047613;28;20204;-80
2021/07/12 12:48:30;;;;;;;2.05;1.42;;;20.10;99.90;;;;;;5032651;28;20242;-80
2021/07/12 12:50:59;;;;;;;2.88;1.70;;;19.60;99.90;;;;;;5037699;28;20255;-80
2021/07/12 12:53:33;;;;;;;2.78;1.67;;;19.70;99.90;;;;;;5033007;28;20205;-80
2021/07/12 12:56:00;;;;;;;5.72;1.60;;;19.50;99.90;;;;;;5032852;28;20226;-80
2021/07/12 12:58:28;;;;;;;2.33;1.58;;;19.50;99.90;;;;;;5032673;28;20236;-80
2021/07/12 13:00:56;;;;;;;2.83;1.60;;;19.10;99.90;;;;;;5033144;28;20300;-79